createdAt,value
2022-10-07T00:02:20.881Z,13.95
2022-10-07T00:04:47.662Z,13.90
2022-10-07T00:07:14.988Z,13.91
2022-10-07T00:09:41.644Z,13.89
2022-10-07T00:12:08.253Z,13.83
2022-10-07T00:14:34.924Z,13.73
2022-10-07T00:17:01.698Z,13.73
2022-10-07T00:19:28.282Z,13.76
2022-10-07T00:21:54.943Z,13.82
2022-10-07T00:24:21.563Z,13.86
2022-10-07T00:26:48.231Z,13.83
2022-10-07T00:29:14.925Z,13.83
2022-10-07T00:31:41.816Z,13.78
2022-10-07T00:34:08.355Z,13.77
2022-10-07T00:36:37.312Z,13.77
2022-10-07T00:39:06.498Z,13.80
2022-10-07T00:41:36.228Z,13.80
2022-10-07T00:44:37.970Z,13.80
2022-10-07T00:47:04.782Z,13.75
2022-10-07T00:49:42.700Z,13.74
2022-10-07T00:52:09.404Z,13.66
2022-10-07T00:54:38.026Z,13.69
2022-10-07T00:57:05.395Z,13.69
2022-10-07T00:59:33.282Z,13.67
2022-10-07T01:02:00.052Z,13.62
2022-10-07T01:04:26.688Z,13.56
2022-10-07T01:06:53.442Z,13.54
2022-10-07T01:09:21.479Z,13.52
2022-10-07T01:11:59.556Z,13.53
2022-10-07T01:14:29.368Z,13.50
2022-10-07T01:17:02.823Z,13.43
2022-10-07T01:19:44.453Z,13.38
2022-10-07T01:22:19.893Z,13.36
2022-10-07T01:25:01.123Z,13.36
2022-10-07T01:27:29.614Z,13.34
2022-10-07T01:30:03.273Z,13.35
2022-10-07T01:32:38.811Z,13.36
2022-10-07T01:35:12.046Z,13.32
2022-10-07T01:37:44.321Z,13.31
2022-10-07T01:40:17.330Z,13.31
2022-10-07T01:42:45.901Z,13.32
2022-10-07T01:45:21.165Z,13.30
2022-10-07T01:47:49.145Z,13.27
2022-10-07T01:50:16.997Z,13.25
2022-10-07T01:53:03.889Z,13.25
2022-10-07T01:55:58.306Z,13.21
2022-10-07T01:58:38.765Z,13.18
2022-10-07T02:01:16.309Z,13.13
2022-10-07T02:03:54.564Z,13.11
2022-10-07T02:06:37.658Z,13.11
2022-10-07T02:09:15.363Z,13.06
2022-10-07T02:11:50.722Z,13.02
2022-10-07T02:14:23.562Z,13.02
2022-10-07T02:16:56.541Z,13.01
2022-10-07T02:19:31.542Z,12.98
2022-10-07T02:22:01.944Z,12.98
2022-10-07T02:24:33.195Z,12.99
2022-10-07T02:27:03.749Z,13.00
2022-10-07T02:29:34.865Z,13.01
2022-10-07T02:32:07.234Z,13.03
2022-10-07T02:34:36.003Z,13.03
2022-10-07T02:37:07.072Z,12.98
2022-10-07T02:39:34.431Z,12.93
2022-10-07T02:42:26.332Z,12.95
2022-10-07T02:45:00.999Z,12.91
2022-10-07T02:47:37.407Z,12.86
2022-10-07T02:50:10.834Z,12.83
2022-10-07T02:52:39.780Z,12.82
2022-10-07T02:55:13.015Z,12.79
2022-10-07T02:57:44.083Z,12.77
2022-10-07T03:00:12.614Z,12.80
2022-10-07T03:02:55.424Z,12.81
2022-10-07T03:05:26.367Z,12.76
2022-10-07T03:08:00.488Z,12.73
2022-10-07T03:10:28.681Z,12.69
2022-10-07T03:12:56.717Z,12.66
2022-10-07T03:15:24.286Z,12.64
2022-10-07T03:17:51.814Z,12.64
2022-10-07T03:20:18.542Z,12.62
2022-10-07T03:22:45.144Z,12.60
2022-10-07T03:25:16.013Z,12.57
2022-10-07T03:27:43.489Z,12.57
2022-10-07T03:30:11.690Z,12.56
2022-10-07T03:32:41.342Z,12.54
2022-10-07T03:35:09.372Z,12.54
2022-10-07T03:37:36.978Z,12.52
2022-10-07T03:40:05.964Z,12.47
2022-10-07T03:42:32.599Z,12.39
2022-10-07T03:45:00.016Z,12.38
2022-10-07T03:47:27.534Z,12.36
2022-10-07T03:49:55.204Z,12.35
2022-10-07T03:52:23.023Z,12.35
2022-10-07T03:54:49.951Z,12.35
2022-10-07T03:57:35.285Z,12.35
2022-10-07T04:00:02.179Z,12.34
2022-10-07T04:02:30.370Z,12.38
2022-10-07T04:04:57.074Z,12.37
2022-10-07T04:07:23.983Z,12.41
2022-10-07T04:09:51.715Z,12.43
2022-10-07T04:12:19.110Z,12.46
2022-10-07T04:14:46.228Z,12.44
2022-10-07T04:17:12.829Z,12.42
2022-10-07T04:19:39.382Z,12.37
2022-10-07T04:22:08.977Z,12.33
2022-10-07T04:24:36.371Z,12.29
2022-10-07T04:27:06.209Z,12.25
2022-10-07T04:29:38.089Z,12.29
2022-10-07T04:32:06.046Z,12.37
2022-10-07T04:34:33.114Z,12.42
2022-10-07T04:37:01.231Z,12.42
2022-10-07T04:39:49.008Z,12.43
2022-10-07T04:42:34.057Z,12.48
2022-10-07T04:45:00.843Z,12.49
2022-10-07T04:47:27.805Z,12.49
2022-10-07T04:49:55.101Z,12.48
2022-10-07T04:52:22.187Z,12.44
2022-10-07T04:54:49.114Z,12.42
2022-10-07T04:57:15.746Z,12.36
2022-10-07T04:59:43.778Z,12.30
2022-10-07T05:02:14.712Z,12.23
2022-10-07T05:04:42.105Z,12.15
2022-10-07T05:07:10.152Z,12.12
2022-10-07T05:09:36.932Z,12.10
2022-10-07T05:12:04.995Z,11.98
2022-10-07T05:14:33.708Z,11.84
2022-10-07T05:17:01.166Z,11.83
2022-10-07T05:19:32.473Z,11.87
2022-10-07T05:21:59.232Z,11.93
2022-10-07T05:24:26.395Z,11.93
2022-10-07T05:26:54.632Z,11.93
2022-10-07T05:29:21.352Z,12.00
2022-10-07T05:31:51.115Z,12.06
2022-10-07T05:34:21.429Z,12.02
2022-10-07T05:36:48.099Z,12.09
2022-10-07T05:39:14.683Z,12.16
2022-10-07T05:42:04.766Z,12.17
2022-10-07T05:44:37.761Z,12.19
2022-10-07T05:47:05.652Z,12.20
2022-10-07T05:49:32.692Z,12.24
2022-10-07T05:51:59.535Z,12.29
2022-10-07T05:54:26.209Z,12.24
2022-10-07T05:56:54.420Z,12.31
2022-10-07T05:59:22.294Z,12.41
2022-10-07T06:01:49.238Z,12.43
2022-10-07T06:04:19.982Z,12.34
2022-10-07T06:06:48.482Z,12.26
2022-10-07T06:09:33.377Z,12.15
2022-10-07T06:12:23.087Z,12.10
2022-10-07T06:14:51.780Z,12.03
2022-10-07T06:17:18.366Z,12.01
2022-10-07T06:19:46.392Z,12.01
2022-10-07T06:22:14.802Z,12.00
2022-10-07T06:24:43.366Z,12.00
2022-10-07T06:27:10.592Z,12.03
2022-10-07T06:29:37.514Z,12.06
2022-10-07T06:32:05.172Z,12.10
2022-10-07T06:34:32.314Z,12.13
2022-10-07T06:36:58.867Z,12.18
2022-10-07T06:39:25.928Z,12.31
2022-10-07T06:41:54.504Z,12.45
2022-10-07T06:44:39.270Z,12.43
2022-10-07T06:47:11.662Z,12.48
2022-10-07T06:49:39.633Z,12.63
2022-10-07T06:52:06.658Z,12.76
2022-10-07T06:54:34.050Z,12.86
2022-10-07T06:57:00.710Z,12.98
2022-10-07T06:59:27.852Z,13.11
2022-10-07T07:02:07.144Z,13.14
2022-10-07T07:04:34.700Z,13.05
2022-10-07T07:07:02.188Z,13.09
2022-10-07T07:09:29.036Z,13.12
2022-10-07T07:11:56.682Z,13.07
2022-10-07T07:14:28.864Z,12.94
2022-10-07T07:17:03.608Z,12.87
2022-10-07T07:19:30.551Z,12.85
2022-10-07T07:21:57.984Z,12.82
2022-10-07T07:24:26.584Z,12.86
2022-10-07T07:26:53.448Z,12.94
2022-10-07T07:29:21.046Z,13.01
2022-10-07T07:31:52.556Z,13.03
2022-10-07T07:34:21.115Z,12.97
2022-10-07T07:36:51.661Z,12.99
2022-10-07T07:39:20.778Z,13.10
2022-10-07T07:41:56.684Z,13.26
2022-10-07T07:44:25.011Z,13.39
2022-10-07T07:46:55.032Z,13.55
2022-10-07T07:49:24.002Z,13.72
2022-10-07T07:51:51.612Z,13.89
2022-10-07T07:54:25.419Z,13.98
2022-10-07T07:56:52.046Z,14.04
2022-10-07T07:59:20.541Z,13.98
2022-10-07T08:01:49.121Z,14.01
2022-10-07T08:04:16.711Z,14.05
2022-10-07T08:06:44.040Z,13.97
2022-10-07T08:09:12.670Z,13.93
2022-10-07T08:11:44.722Z,13.87
2022-10-07T08:14:15.620Z,13.80
2022-10-07T08:16:46.046Z,13.90
2022-10-07T08:19:13.237Z,13.98
2022-10-07T08:21:40.533Z,14.08
2022-10-07T08:24:12.470Z,14.26
2022-10-07T08:26:39.733Z,14.44
2022-10-07T08:29:09.347Z,14.63
2022-10-07T08:31:36.649Z,14.79
2022-10-07T08:34:06.438Z,14.82
2022-10-07T08:36:36.410Z,14.91
2022-10-07T08:39:04.589Z,15.14
2022-10-07T08:41:34.201Z,15.30
2022-10-07T08:44:17.781Z,15.53
2022-10-07T08:47:06.493Z,15.70
2022-10-07T08:49:44.121Z,15.86
2022-10-07T08:52:32.658Z,15.96
2022-10-07T08:55:01.566Z,15.99
2022-10-07T08:57:38.999Z,16.02
2022-10-07T09:00:07.394Z,16.01
2022-10-07T09:02:55.205Z,16.04
2022-10-07T09:05:32.480Z,16.08
2022-10-07T09:08:04.801Z,16.06
2022-10-07T09:10:39.401Z,16.11
2022-10-07T09:13:12.653Z,16.21
2022-10-07T09:16:13.124Z,16.38
2022-10-07T09:18:50.840Z,16.53
2022-10-07T09:21:25.534Z,16.73
2022-10-07T09:24:16.037Z,16.94
2022-10-07T09:26:42.786Z,17.15
2022-10-07T09:29:10.693Z,17.35
2022-10-07T09:31:38.865Z,17.56
2022-10-07T09:34:06.561Z,17.79
2022-10-07T09:36:33.156Z,18.00
2022-10-07T09:39:16.245Z,18.26
2022-10-07T09:41:43.339Z,18.46
2022-10-07T09:44:15.827Z,18.68
2022-10-07T09:46:48.540Z,18.98
2022-10-07T09:49:30.421Z,20.13
2022-10-07T09:52:17.725Z,21.94
2022-10-07T09:54:47.457Z,23.44
2022-10-07T09:57:23.201Z,24.27
2022-10-07T09:59:49.741Z,24.34
2022-10-07T10:02:22.911Z,24.42
2022-10-07T10:04:55.418Z,24.81
2022-10-07T10:07:30.523Z,25.27
2022-10-07T10:10:03.492Z,25.87
2022-10-07T10:12:40.628Z,26.77
2022-10-07T10:15:28.527Z,27.37
2022-10-07T10:17:57.171Z,27.95
2022-10-07T10:20:23.745Z,28.48
2022-10-07T10:22:51.488Z,28.18
2022-10-07T10:25:46.387Z,27.62
2022-10-07T10:28:39.812Z,26.03
2022-10-07T10:31:50.727Z,24.59
2022-10-07T10:34:35.652Z,23.90
2022-10-07T10:37:14.821Z,23.64
2022-10-07T10:39:44.105Z,23.39
2022-10-07T10:42:14.490Z,22.84
2022-10-07T10:45:07.841Z,22.83
2022-10-07T10:47:47.701Z,22.96
2022-10-07T10:50:31.462Z,22.83
2022-10-07T10:53:07.584Z,22.75
2022-10-07T10:55:43.111Z,22.97
2022-10-07T10:58:43.833Z,23.70
2022-10-07T11:01:27.991Z,25.64
2022-10-07T11:04:25.578Z,27.55
2022-10-07T11:07:08.472Z,29.12
2022-10-07T11:09:53.355Z,29.41
2022-10-07T11:12:33.927Z,29.71
2022-10-07T11:15:12.268Z,30.51
2022-10-07T11:17:39.919Z,31.29
2022-10-07T11:20:44.427Z,31.52
2022-10-07T11:23:25.409Z,31.95
2022-10-07T11:26:03.167Z,32.25
2022-10-07T11:28:33.374Z,32.46
2022-10-07T11:31:36.825Z,32.66
2022-10-07T11:34:18.944Z,32.33
2022-10-07T11:37:06.006Z,32.08
2022-10-07T11:39:36.670Z,32.47
2022-10-07T11:42:28.886Z,32.76
2022-10-07T11:45:03.608Z,32.79
2022-10-07T11:48:07.177Z,32.76
2022-10-07T11:50:52.474Z,32.86
2022-10-07T11:53:24.178Z,33.09
2022-10-07T11:55:59.629Z,33.25
2022-10-07T11:58:37.438Z,33.32
2022-10-07T12:01:25.792Z,33.07
2022-10-07T12:04:15.353Z,32.99
2022-10-07T12:07:00.473Z,33.33
2022-10-07T12:10:01.769Z,34.11
2022-10-07T12:12:55.171Z,34.91
2022-10-07T12:15:35.510Z,35.12
2022-10-07T12:18:04.757Z,35.13
2022-10-07T12:20:37.401Z,34.45
2022-10-07T12:23:28.350Z,32.24
2022-10-07T12:26:33.045Z,29.60
2022-10-07T12:28:59.855Z,27.90
2022-10-07T12:31:26.787Z,26.89
2022-10-07T12:33:53.383Z,26.23
2022-10-07T12:36:23.862Z,25.79
2022-10-07T12:38:56.919Z,25.40
2022-10-07T12:41:26.598Z,25.05
2022-10-07T12:44:06.350Z,24.65
2022-10-07T12:46:42.805Z,24.21
2022-10-07T12:49:29.743Z,23.91
2022-10-07T12:52:03.846Z,23.64
2022-10-07T12:54:39.341Z,23.37
2022-10-07T12:57:13.377Z,23.24
2022-10-07T13:00:14.094Z,23.28
2022-10-07T13:03:18.406Z,23.18
2022-10-07T13:06:26.963Z,22.90
2022-10-07T13:09:41.315Z,22.62
2022-10-07T13:12:07.936Z,22.47
2022-10-07T13:15:13.888Z,22.57
2022-10-07T13:17:40.398Z,22.65
2022-10-07T13:20:43.159Z,22.71
2022-10-07T13:23:18.800Z,22.63
2022-10-07T13:25:55.441Z,22.57
2022-10-07T13:28:25.654Z,22.54
2022-10-07T13:30:53.543Z,22.49
2022-10-07T13:33:22.409Z,22.29
2022-10-07T13:35:50.277Z,22.15
2022-10-07T13:38:24.944Z,21.84
2022-10-07T13:41:14.267Z,21.95
2022-10-07T13:43:46.336Z,22.06
2022-10-07T13:46:15.137Z,22.12
2022-10-07T13:48:45.546Z,22.12
2022-10-07T13:51:20.860Z,22.14
2022-10-07T13:53:54.675Z,22.17
2022-10-07T13:56:27.179Z,22.25
2022-10-07T13:58:55.838Z,22.42
2022-10-07T14:01:27.399Z,22.59
2022-10-07T14:04:25.770Z,22.68
2022-10-07T14:06:58.452Z,22.59
2022-10-07T14:09:58.018Z,22.28
2022-10-07T14:12:33.632Z,21.95
2022-10-07T14:15:10.468Z,21.93
2022-10-07T14:17:45.064Z,21.98
2022-10-07T14:20:31.108Z,21.99
2022-10-07T14:23:00.789Z,22.02
2022-10-07T14:25:29.105Z,22.04
2022-10-07T14:27:58.838Z,21.89
2022-10-07T14:30:56.142Z,21.74
2022-10-07T14:34:03.830Z,21.72
2022-10-07T14:36:30.583Z,21.69
2022-10-07T14:38:59.872Z,21.71
2022-10-07T14:41:32.277Z,21.73
2022-10-07T14:44:00.303Z,21.55
2022-10-07T14:46:28.388Z,21.46
2022-10-07T14:48:55.290Z,21.54
2022-10-07T14:51:26.935Z,21.58
2022-10-07T14:53:57.945Z,21.60
2022-10-07T14:56:27.556Z,21.66
2022-10-07T14:58:54.764Z,21.66
2022-10-07T15:01:21.477Z,21.58
2022-10-07T15:03:51.273Z,21.53
2022-10-07T15:06:19.008Z,21.46
2022-10-07T15:08:47.268Z,21.47
2022-10-07T15:11:18.679Z,21.30
2022-10-07T15:13:47.706Z,21.26
2022-10-07T15:16:17.389Z,21.20
2022-10-07T15:18:49.527Z,21.03
2022-10-07T15:21:18.483Z,20.82
2022-10-07T15:23:49.359Z,20.81
2022-10-07T15:26:16.184Z,20.83
2022-10-07T15:28:42.849Z,20.88
2022-10-07T15:31:09.987Z,20.92
2022-10-07T15:33:37.898Z,20.99
2022-10-07T15:36:04.906Z,21.03
2022-10-07T15:38:32.042Z,21.06
2022-10-07T15:41:00.837Z,20.98
2022-10-07T15:43:28.836Z,20.85
2022-10-07T15:45:58.643Z,20.83
2022-10-07T15:48:27.544Z,20.91
2022-10-07T15:50:55.697Z,20.92
2022-10-07T15:53:23.870Z,20.87
2022-10-07T15:55:57.318Z,20.73
2022-10-07T15:58:28.501Z,20.64
2022-10-07T16:01:00.494Z,20.58
2022-10-07T16:03:29.045Z,20.42
2022-10-07T16:06:01.854Z,20.33
2022-10-07T16:08:31.067Z,20.19
2022-10-07T16:11:04.611Z,20.02
2022-10-07T16:13:34.100Z,20.01
2022-10-07T16:16:03.563Z,20.05
2022-10-07T16:18:38.825Z,20.00
2022-10-07T16:21:11.941Z,19.96
2022-10-07T16:23:40.402Z,19.94
2022-10-07T16:26:30.366Z,19.90
2022-10-07T16:29:17.722Z,19.79
2022-10-07T16:31:46.011Z,19.78
2022-10-07T16:34:14.583Z,19.71
2022-10-07T16:36:45.599Z,19.70
2022-10-07T16:39:12.953Z,19.66
2022-10-07T16:41:42.382Z,19.60
2022-10-07T16:44:09.423Z,19.61
2022-10-07T16:46:36.865Z,19.62
2022-10-07T16:49:08.482Z,19.64
2022-10-07T16:51:36.774Z,19.65
2022-10-07T16:54:12.665Z,19.66
2022-10-07T16:56:48.334Z,19.63
2022-10-07T16:59:24.022Z,19.59
2022-10-07T17:01:56.277Z,19.52
2022-10-07T17:04:24.356Z,19.44
2022-10-07T17:06:50.938Z,19.39
2022-10-07T17:09:18.437Z,19.34
2022-10-07T17:11:48.551Z,19.39
2022-10-07T17:14:20.578Z,19.41
2022-10-07T17:16:49.827Z,19.43
2022-10-07T17:19:19.170Z,19.38
2022-10-07T17:21:48.044Z,19.32
2022-10-07T17:24:16.229Z,19.29
2022-10-07T17:26:43.320Z,19.31
2022-10-07T17:29:12.718Z,19.29
2022-10-07T17:31:43.442Z,19.27
2022-10-07T17:34:11.785Z,19.23
2022-10-07T17:36:39.791Z,19.20
2022-10-07T17:39:06.930Z,19.16
2022-10-07T17:41:36.324Z,19.15
2022-10-07T17:44:05.825Z,19.16
2022-10-07T17:46:36.578Z,19.14
2022-10-07T17:49:03.709Z,19.09
2022-10-07T17:51:32.020Z,19.03
2022-10-07T17:54:00.218Z,18.96
2022-10-07T17:56:28.559Z,18.90
2022-10-07T17:58:56.859Z,18.89
2022-10-07T18:01:33.911Z,18.87
2022-10-07T18:04:14.893Z,18.85
2022-10-07T18:06:46.771Z,18.78
2022-10-07T18:09:18.245Z,18.74
2022-10-07T18:12:04.652Z,18.70
2022-10-07T18:14:53.496Z,18.62
2022-10-07T18:17:20.832Z,18.56
2022-10-07T18:19:47.735Z,18.59
2022-10-07T18:22:14.681Z,18.62
2022-10-07T18:24:42.315Z,18.60
2022-10-07T18:27:09.028Z,18.61
2022-10-07T18:29:39.060Z,18.62
2022-10-07T18:32:06.917Z,18.58
2022-10-07T18:34:33.867Z,18.58
2022-10-07T18:37:01.237Z,18.62
2022-10-07T18:39:29.541Z,18.64
2022-10-07T18:41:56.730Z,18.64
2022-10-07T18:44:23.552Z,18.66
2022-10-07T18:46:50.524Z,18.72
2022-10-07T18:49:17.282Z,18.74
2022-10-07T18:51:45.689Z,18.77
2022-10-07T18:54:12.698Z,18.74
2022-10-07T18:56:41.290Z,18.74
2022-10-07T18:59:09.729Z,18.76
2022-10-07T19:01:37.714Z,18.73
2022-10-07T19:04:05.943Z,18.70
2022-10-07T19:06:35.296Z,18.72
2022-10-07T19:09:05.508Z,18.75
2022-10-07T19:11:32.307Z,18.73
2022-10-07T19:13:59.685Z,18.68
2022-10-07T19:16:34.485Z,18.67
2022-10-07T19:19:04.776Z,18.67
2022-10-07T19:21:32.159Z,18.60
2022-10-07T19:24:01.404Z,18.58
2022-10-07T19:26:34.975Z,18.54
2022-10-07T19:29:02.634Z,18.56
2022-10-07T19:31:35.367Z,18.54
2022-10-07T19:34:05.138Z,18.44
2022-10-07T19:36:32.447Z,18.40
2022-10-07T19:39:00.522Z,18.37
2022-10-07T19:41:30.118Z,18.45
2022-10-07T19:43:57.976Z,18.48
2022-10-07T19:46:26.960Z,18.51
2022-10-07T19:48:56.970Z,18.54
2022-10-07T19:51:27.826Z,18.58
2022-10-07T19:53:57.236Z,18.59
2022-10-07T19:56:37.850Z,18.64
2022-10-07T19:59:07.269Z,18.65
2022-10-07T20:01:37.198Z,18.69
2022-10-07T20:04:06.967Z,18.66
2022-10-07T20:06:36.472Z,18.63
2022-10-07T20:09:05.867Z,18.58
2022-10-07T20:11:32.770Z,18.62
2022-10-07T20:14:00.060Z,18.68
2022-10-07T20:16:28.006Z,18.68
2022-10-07T20:19:05.794Z,18.66
2022-10-07T20:21:35.804Z,18.58
2022-10-07T20:24:03.035Z,18.53
2022-10-07T20:26:32.493Z,18.59
2022-10-07T20:29:01.407Z,18.60
2022-10-07T20:31:31.581Z,18.60
2022-10-07T20:34:00.078Z,18.60
2022-10-07T20:36:28.828Z,18.58
2022-10-07T20:39:33.477Z,18.57
2022-10-07T20:42:19.446Z,18.52
2022-10-07T20:44:48.237Z,18.52
2022-10-07T20:47:14.899Z,18.50
2022-10-07T20:49:42.464Z,18.46
2022-10-07T20:52:17.261Z,18.45
2022-10-07T20:54:47.885Z,18.44
2022-10-07T20:57:17.079Z,18.40
2022-10-07T20:59:44.158Z,18.37
2022-10-07T21:02:15.457Z,18.30
2022-10-07T21:04:42.588Z,18.24
2022-10-07T21:07:10.117Z,18.23
2022-10-07T21:09:37.330Z,18.23
2022-10-07T21:12:07.232Z,18.23
2022-10-07T21:14:37.714Z,18.22
2022-10-07T21:17:06.959Z,18.22
2022-10-07T21:19:36.019Z,18.25
2022-10-07T21:22:04.899Z,18.25
2022-10-07T21:24:35.588Z,18.20
2022-10-07T21:27:04.392Z,18.18
2022-10-07T21:29:39.003Z,18.17
2022-10-07T21:32:07.642Z,18.11
2022-10-07T21:34:34.466Z,18.04
2022-10-07T21:37:01.144Z,17.99
2022-10-07T21:39:27.774Z,17.94
2022-10-07T21:41:54.736Z,17.88
2022-10-07T21:44:21.439Z,17.80
2022-10-07T21:46:48.275Z,17.72
2022-10-07T21:49:15.802Z,17.67
2022-10-07T21:51:43.201Z,17.64
2022-10-07T21:54:14.350Z,17.65
2022-10-07T21:56:43.575Z,17.67
2022-10-07T21:59:10.481Z,17.67
2022-10-07T22:01:38.246Z,17.67
2022-10-07T22:04:04.966Z,17.70
2022-10-07T22:06:50.739Z,17.81
2022-10-07T22:09:20.137Z,17.90
2022-10-07T22:11:47.363Z,17.93
2022-10-07T22:14:14.328Z,17.98
2022-10-07T22:16:41.044Z,18.03
2022-10-07T22:19:07.721Z,18.10
2022-10-07T22:21:35.857Z,18.18
2022-10-07T22:24:05.029Z,18.24
2022-10-07T22:26:34.254Z,18.31
2022-10-07T22:29:01.216Z,18.33
2022-10-07T22:31:27.951Z,18.36
2022-10-07T22:33:58.304Z,18.40
2022-10-07T22:36:25.971Z,18.43
2022-10-07T22:38:52.770Z,18.44
2022-10-07T22:41:19.549Z,18.46
2022-10-07T22:43:47.688Z,18.49
2022-10-07T22:46:17.227Z,18.48
2022-10-07T22:48:44.389Z,18.34
2022-10-07T22:51:14.031Z,18.31
2022-10-07T22:53:43.366Z,18.30
2022-10-07T22:56:12.403Z,18.26
2022-10-07T22:58:41.090Z,18.27
2022-10-07T23:01:11.421Z,18.29
2022-10-07T23:03:39.634Z,18.33
2022-10-07T23:06:07.319Z,18.33
2022-10-07T23:08:34.880Z,18.36
2022-10-07T23:11:03.348Z,18.40
2022-10-07T23:13:33.062Z,18.44
2022-10-07T23:16:08.873Z,18.43
2022-10-07T23:18:35.650Z,18.34
2022-10-07T23:21:05.452Z,18.33
2022-10-07T23:23:35.641Z,18.29
2022-10-07T23:26:13.517Z,18.11
2022-10-07T23:28:40.735Z,18.16
2022-10-07T23:31:10.753Z,18.22
2022-10-07T23:33:38.215Z,18.25
2022-10-07T23:36:08.829Z,18.25
2022-10-07T23:38:36.714Z,18.25
2022-10-07T23:41:04.337Z,18.26
2022-10-07T23:43:34.430Z,18.26
2022-10-07T23:46:02.219Z,18.25
2022-10-07T23:48:33.420Z,18.21
2022-10-07T23:51:01.201Z,18.16
2022-10-07T23:53:27.765Z,18.14
2022-10-07T23:55:54.409Z,18.15
2022-10-07T23:58:23.442Z,18.21
